sensor_id;sensor_type;location;lat;lon;timestamp;pressure;altitude;pressure_sealevel;temperature;humidity
39309;BME280;26019;47.510;19.122;2022-12-13T00:05:44;99827.88;;;-3.09;100.00
39309;BME280;26019;47.510;19.122;2022-12-13T00:15:57;99845.19;;;-3.19;100.00
39309;BME280;26019;47.510;19.122;2022-12-13T00:26:09;99830.00;;;-3.19;100.00
39309;BME280;26019;47.510;19.122;2022-12-13T00:36:13;99833.09;;;-3.26;100.00
39309;BME280;26019;47.510;19.122;2022-12-13T00:46:18;99860.09;;;-3.25;100.00
39309;BME280;26019;47.510;19.122;2022-12-13T00:56:25;99865.13;;;-3.25;100.00
39309;BME280;26019;47.510;19.122;2022-12-13T01:06:37;99863.28;;;-3.29;100.00
39309;BME280;26019;47.510;19.122;2022-12-13T01:16:39;99865.44;;;-3.38;100.00
39309;BME280;26019;47.510;19.122;2022-12-13T01:37:11;99869.00;;;-3.53;100.00
39309;BME280;26019;47.510;19.122;2022-12-13T01:47:16;99887.91;;;-3.45;100.00
39309;BME280;26019;47.510;19.122;2022-12-13T01:57:21;99875.28;;;-3.64;100.00
39309;BME280;26019;47.510;19.122;2022-12-13T02:07:27;99904.66;;;-3.47;100.00
39309;BME280;26019;47.510;19.122;2022-12-13T02:48:43;99898.66;;;-3.68;100.00
39309;BME280;26019;47.510;19.122;2022-12-13T02:58:50;99899.31;;;-3.53;100.00
39309;BME280;26019;47.510;19.122;2022-12-13T03:19:33;99891.66;;;-3.74;100.00
39309;BME280;26019;47.510;19.122;2022-12-13T03:29:36;99909.13;;;-3.79;100.00
39309;BME280;26019;47.510;19.122;2022-12-13T03:39:42;99911.53;;;-3.82;100.00
39309;BME280;26019;47.510;19.122;2022-12-13T03:49:46;99912.97;;;-3.87;100.00
39309;BME280;26019;47.510;19.122;2022-12-13T03:59:54;99915.06;;;-3.96;100.00
39309;BME280;26019;47.510;19.122;2022-12-13T04:09:56;99924.25;;;-3.98;100.00
39309;BME280;26019;47.510;19.122;2022-12-13T04:20:00;99935.06;;;-4.01;100.00
39309;BME280;26019;47.510;19.122;2022-12-13T04:30:03;99928.13;;;-4.05;100.00
39309;BME280;26019;47.510;19.122;2022-12-13T04:40:08;99930.31;;;-4.13;100.00
39309;BME280;26019;47.510;19.122;2022-12-13T04:50:11;99924.03;;;-4.03;100.00
39309;BME280;26019;47.510;19.122;2022-12-13T05:00:16;99933.69;;;-4.12;100.00
39309;BME280;26019;47.510;19.122;2022-12-13T05:10:18;99933.03;;;-4.26;100.00
39309;BME280;26019;47.510;19.122;2022-12-13T05:20:39;99920.50;;;-4.43;100.00
39309;BME280;26019;47.510;19.122;2022-12-13T05:30:43;99932.22;;;-4.43;100.00
39309;BME280;26019;47.510;19.122;2022-12-13T05:40:46;99934.06;;;-4.57;100.00
39309;BME280;26019;47.510;19.122;2022-12-13T05:50:48;99942.63;;;-4.72;100.00
39309;BME280;26019;47.510;19.122;2022-12-13T06:00:51;99933.50;;;-4.86;100.00
39309;BME280;26019;47.510;19.122;2022-12-13T06:10:59;99947.16;;;-4.83;100.00
39309;BME280;26019;47.510;19.122;2022-12-13T06:21:12;99968.63;;;-4.73;100.00
39309;BME280;26019;47.510;19.122;2022-12-13T06:31:14;99959.16;;;-4.60;100.00
39309;BME280;26019;47.510;19.122;2022-12-13T06:41:16;99966.47;;;-4.48;100.00
39309;BME280;26019;47.510;19.122;2022-12-13T06:51:18;99979.00;;;-4.50;100.00
39309;BME280;26019;47.510;19.122;2022-12-13T07:01:24;99987.47;;;-4.31;100.00
39309;BME280;26019;47.510;19.122;2022-12-13T07:11:37;100008.34;;;-4.17;100.00
39309;BME280;26019;47.510;19.122;2022-12-13T07:21:39;100009.22;;;-3.63;100.00
39309;BME280;26019;47.510;19.122;2022-12-13T07:31:46;100024.88;;;-2.94;100.00
39309;BME280;26019;47.510;19.122;2022-12-13T07:41:48;100016.66;;;-2.49;100.00
39309;BME280;26019;47.510;19.122;2022-12-13T07:51:54;100019.91;;;-2.11;100.00
39309;BME280;26019;47.510;19.122;2022-12-13T08:01:56;100034.78;;;-1.32;100.00
39309;BME280;26019;47.510;19.122;2022-12-13T08:12:02;100044.44;;;-1.22;100.00
39309;BME280;26019;47.510;19.122;2022-12-13T08:22:04;100041.69;;;-0.57;100.00
39309;BME280;26019;47.510;19.122;2022-12-13T08:32:14;100038.44;;;0.25;100.00
39309;BME280;26019;47.510;19.122;2022-12-13T08:42:17;100033.16;;;0.46;100.00
39309;BME280;26019;47.510;19.122;2022-12-13T08:52:30;100031.22;;;0.97;95.80
39309;BME280;26019;47.510;19.122;2022-12-13T09:02:32;100041.09;;;2.16;82.75
39309;BME280;26019;47.510;19.122;2022-12-13T09:12:42;100041.53;;;2.74;72.10
39309;BME280;26019;47.510;19.122;2022-12-13T09:22:46;100027.94;;;4.75;56.43
39309;BME280;26019;47.510;19.122;2022-12-13T09:32:48;100025.41;;;6.54;52.43
39309;BME280;26019;47.510;19.122;2022-12-13T09:42:55;100007.78;;;7.56;47.34
39309;BME280;26019;47.510;19.122;2022-12-13T09:53:21;100009.47;;;8.57;41.48
39309;BME280;26019;47.510;19.122;2022-12-13T10:03:25;100001.78;;;9.98;38.03
39309;BME280;26019;47.510;19.122;2022-12-13T10:34:35;99976.06;;;8.09;37.73
39309;BME280;26019;47.510;19.122;2022-12-13T10:44:40;99959.22;;;11.68;33.72
39309;BME280;26019;47.510;19.122;2022-12-13T10:54:43;99962.47;;;12.75;30.48
39309;BME280;26019;47.510;19.122;2022-12-13T11:05:40;99953.03;;;11.78;31.55
39309;BME280;26019;47.510;19.122;2022-12-13T11:15:34;99942.19;;;12.53;30.69
39309;BME280;26019;47.510;19.122;2022-12-13T11:25:42;99941.66;;;11.89;31.29
39309;BME280;26019;47.510;19.122;2022-12-13T11:46:16;99918.91;;;11.55;29.46
39309;BME280;26019;47.510;19.122;2022-12-13T12:06:40;99919.53;;;13.78;29.19
39309;BME280;26019;47.510;19.122;2022-12-13T12:16:57;99921.28;;;14.42;27.19
39309;BME280;26019;47.510;19.122;2022-12-13T12:27:21;99938.31;;;7.19;37.53
39309;BME280;26019;47.510;19.122;2022-12-13T12:48:06;99924.06;;;5.96;42.21
39309;BME280;26019;47.510;19.122;2022-12-13T12:59:03;99934.69;;;3.91;45.82
39309;BME280;26019;47.510;19.122;2022-12-13T13:09:12;99922.59;;;6.34;41.54
39309;BME280;26019;47.510;19.122;2022-12-13T13:29:37;99951.03;;;6.76;40.09
39309;BME280;26019;47.510;19.122;2022-12-13T14:11:18;99984.53;;;2.34;51.97
39309;BME280;26019;47.510;19.122;2022-12-13T14:21:55;99981.66;;;2.18;54.68
39309;BME280;26019;47.510;19.122;2022-12-13T14:32:00;99976.44;;;1.42;57.24
39309;BME280;26019;47.510;19.122;2022-12-13T14:42:27;99991.25;;;0.62;63.77
39309;BME280;26019;47.510;19.122;2022-12-13T14:52:37;99979.38;;;0.05;73.73
39309;BME280;26019;47.510;19.122;2022-12-13T15:02:49;99982.81;;;-0.47;82.11
39309;BME280;26019;47.510;19.122;2022-12-13T15:12:53;99999.44;;;-0.81;88.07
39309;BME280;26019;47.510;19.122;2022-12-13T15:22:58;100015.81;;;-0.95;98.25
39309;BME280;26019;47.510;19.122;2022-12-13T15:33:18;100024.81;;;-1.28;98.52
39309;BME280;26019;47.510;19.122;2022-12-13T15:43:42;100040.34;;;-1.41;100.00
39309;BME280;26019;47.510;19.122;2022-12-13T15:54:04;100046.06;;;-1.47;100.00
39309;BME280;26019;47.510;19.122;2022-12-13T16:04:22;100048.34;;;-1.53;100.00
39309;BME280;26019;47.510;19.122;2022-12-13T16:14:41;100042.22;;;-1.81;100.00
39309;BME280;26019;47.510;19.122;2022-12-13T16:24:59;100052.28;;;-1.83;100.00
39309;BME280;26019;47.510;19.122;2022-12-13T16:35:01;100037.81;;;-2.06;100.00
39309;BME280;26019;47.510;19.122;2022-12-13T16:45:04;100038.19;;;-2.18;100.00
39309;BME280;26019;47.510;19.122;2022-12-13T16:55:26;100041.75;;;-2.34;100.00
39309;BME280;26019;47.510;19.122;2022-12-13T17:05:30;100028.78;;;-2.42;100.00
39309;BME280;26019;47.510;19.122;2022-12-13T17:15:35;100033.63;;;-2.06;100.00
39309;BME280;26019;47.510;19.122;2022-12-13T17:25:41;100037.22;;;-2.22;100.00
39309;BME280;26019;47.510;19.122;2022-12-13T17:35:45;100020.97;;;-2.68;100.00
39309;BME280;26019;47.510;19.122;2022-12-13T17:46:00;100034.28;;;-2.72;100.00
39309;BME280;26019;47.510;19.122;2022-12-13T17:56:05;100039.06;;;-2.98;100.00
39309;BME280;26019;47.510;19.122;2022-12-13T18:06:12;100040.25;;;-3.09;100.00
39309;BME280;26019;47.510;19.122;2022-12-13T18:16:16;100043.38;;;-3.15;100.00
39309;BME280;26019;47.510;19.122;2022-12-13T18:26:20;100046.72;;;-3.34;100.00
39309;BME280;26019;47.510;19.122;2022-12-13T18:36:25;100052.59;;;-3.53;100.00
39309;BME280;26019;47.510;19.122;2022-12-13T18:46:31;100058.84;;;-3.63;100.00
39309;BME280;26019;47.510;19.122;2022-12-13T18:56:36;100027.97;;;-3.76;100.00
39309;BME280;26019;47.510;19.122;2022-12-13T19:06:48;100040.66;;;-3.92;100.00
39309;BME280;26019;47.510;19.122;2022-12-13T19:16:53;100038.78;;;-3.96;100.00
39309;BME280;26019;47.510;19.122;2022-12-13T19:27:00;100054.06;;;-3.93;100.00
39309;BME280;26019;47.510;19.122;2022-12-13T19:37:03;100048.03;;;-4.31;100.00
39309;BME280;26019;47.510;19.122;2022-12-13T19:47:08;100033.53;;;-4.36;100.00
39309;BME280;26019;47.510;19.122;2022-12-13T19:57:13;100046.47;;;-4.46;100.00
39309;BME280;26019;47.510;19.122;2022-12-13T20:07:17;100037.91;;;-4.66;100.00
39309;BME280;26019;47.510;19.122;2022-12-13T20:17:21;100053.91;;;-4.66;100.00
39309;BME280;26019;47.510;19.122;2022-12-13T20:27:25;100079.19;;;-4.64;100.00
39309;BME280;26019;47.510;19.122;2022-12-13T20:37:32;100069.03;;;-4.82;100.00
39309;BME280;26019;47.510;19.122;2022-12-13T20:47:36;100071.78;;;-4.77;100.00
39309;BME280;26019;47.510;19.122;2022-12-13T20:57:39;100091.16;;;-4.93;100.00
39309;BME280;26019;47.510;19.122;2022-12-13T21:07:43;100066.25;;;-5.03;100.00
39309;BME280;26019;47.510;19.122;2022-12-13T21:18:07;100064.78;;;-5.00;100.00
39309;BME280;26019;47.510;19.122;2022-12-13T21:28:09;100047.19;;;-5.15;100.00
39309;BME280;26019;47.510;19.122;2022-12-13T21:38:11;100045.06;;;-5.07;100.00
39309;BME280;26019;47.510;19.122;2022-12-13T21:48:13;100032.84;;;-5.16;100.00
39309;BME280;26019;47.510;19.122;2022-12-13T21:58:16;100040.75;;;-5.25;100.00
39309;BME280;26019;47.510;19.122;2022-12-13T22:08:42;100043.50;;;-5.36;100.00
39309;BME280;26019;47.510;19.122;2022-12-13T22:18:44;100013.00;;;-5.58;100.00
39309;BME280;26019;47.510;19.122;2022-12-13T22:28:49;100023.19;;;-5.71;100.00
39309;BME280;26019;47.510;19.122;2022-12-13T22:38:53;100015.38;;;-5.76;100.00
39309;BME280;26019;47.510;19.122;2022-12-13T22:48:55;99997.41;;;-5.67;100.00
39309;BME280;26019;47.510;19.122;2022-12-13T22:58:58;99997.94;;;-5.88;100.00
39309;BME280;26019;47.510;19.122;2022-12-13T23:09:08;100001.50;;;-5.69;100.00
39309;BME280;26019;47.510;19.122;2022-12-13T23:19:17;99976.53;;;-5.81;100.00
39309;BME280;26019;47.510;19.122;2022-12-13T23:29:39;99982.41;;;-5.80;100.00
39309;BME280;26019;47.510;19.122;2022-12-13T23:39:47;99989.00;;;-5.82;100.00
39309;BME280;26019;47.510;19.122;2022-12-13T23:49:51;99989.69;;;-5.70;100.00
39309;BME280;26019;47.510;19.122;2022-12-13T23:59:54;99988.22;;;-5.81;100.00
